Auburntown, Tennessee
Current Conditions -  °F | °C
As of 2:53 AM on Friday 19 Dec 2014 (Local Time) from KBNA Reporting Station
Overcast Overcast  
Wind Chill: -2°   Ceiling: 4800
Heat Index:   Visibility: 7mi
Dew Point: -1°   Wind: 7mph
Humidity: 82%   Direction: 360°N
Pressure: 30.24"   Gusts: NA
Location:  35.95°N, 86.1°W
Report Text: KBNA 190853Z 36006KT 7SM OVC048 02/M01 A3024 RMK AO2 SLP245 T00171011 53001
Loading
Personal Weather Stations






























Interactive Weather Map New forecast layout! Learn more

10-Day Weather Forecast

Advertisements
Track Severe Weather on mobile